sensor_id;sensor_type;location;lat;lon;timestamp;P1;durP1;ratioP1;P2;durP2;ratioP2
545;SDS011;259;53.304;9.816;2022-09-02T00:01:47;0.60;;;0.60;;
545;SDS011;259;53.304;9.816;2022-09-02T00:04:15;0.67;;;0.67;;
545;SDS011;259;53.304;9.816;2022-09-02T00:06:44;0.60;;;0.60;;
545;SDS011;259;53.304;9.816;2022-09-02T00:09:12;0.80;;;0.80;;
545;SDS011;259;53.304;9.816;2022-09-02T00:11:40;0.67;;;0.60;;
545;SDS011;259;53.304;9.816;2022-09-02T00:14:09;0.90;;;0.67;;
545;SDS011;259;53.304;9.816;2022-09-02T00:16:38;0.60;;;0.60;;
545;SDS011;259;53.304;9.816;2022-09-02T00:19:16;0.70;;;0.70;;
545;SDS011;259;53.304;9.816;2022-09-02T00:21:44;0.90;;;0.60;;
545;SDS011;259;53.304;9.816;2022-09-02T00:24:09;0.60;;;0.60;;
545;SDS011;259;53.304;9.816;2022-09-02T00:26:35;0.60;;;0.50;;
545;SDS011;259;53.304;9.816;2022-09-02T00:29:01;0.80;;;0.80;;
545;SDS011;259;53.304;9.816;2022-09-02T00:31:28;0.80;;;0.70;;
545;SDS011;259;53.304;9.816;2022-09-02T00:33:54;0.60;;;0.60;;
545;SDS011;259;53.304;9.816;2022-09-02T00:36:20;0.70;;;0.60;;
545;SDS011;259;53.304;9.816;2022-09-02T00:38:45;0.80;;;0.80;;
545;SDS011;259;53.304;9.816;2022-09-02T00:41:11;1.23;;;0.60;;
545;SDS011;259;53.304;9.816;2022-09-02T00:46:15;0.80;;;0.70;;
545;SDS011;259;53.304;9.816;2022-09-02T00:48:45;0.60;;;0.60;;
545;SDS011;259;53.304;9.816;2022-09-02T00:51:17;0.90;;;0.70;;
545;SDS011;259;53.304;9.816;2022-09-02T00:53:43;0.60;;;0.60;;
545;SDS011;259;53.304;9.816;2022-09-02T00:56:13;1.00;;;0.90;;
545;SDS011;259;53.304;9.816;2022-09-02T00:58:43;0.90;;;0.90;;
545;SDS011;259;53.304;9.816;2022-09-02T01:01:08;0.90;;;0.90;;
545;SDS011;259;53.304;9.816;2022-09-02T01:03:35;1.40;;;0.90;;
545;SDS011;259;53.304;9.816;2022-09-02T01:06:03;0.80;;;0.73;;
545;SDS011;259;53.304;9.816;2022-09-02T01:08:31;0.60;;;0.60;;
545;SDS011;259;53.304;9.816;2022-09-02T01:10:59;0.70;;;0.70;;
545;SDS011;259;53.304;9.816;2022-09-02T01:13:26;1.30;;;0.80;;
545;SDS011;259;53.304;9.816;2022-09-02T01:15:56;1.60;;;0.70;;
545;SDS011;259;53.304;9.816;2022-09-02T01:18:37;0.90;;;0.90;;
545;SDS011;259;53.304;9.816;2022-09-02T01:21:03;0.80;;;0.77;;
545;SDS011;259;53.304;9.816;2022-09-02T01:23:29;0.80;;;0.67;;
545;SDS011;259;53.304;9.816;2022-09-02T01:25:57;0.70;;;0.70;;
545;SDS011;259;53.304;9.816;2022-09-02T01:28:23;0.77;;;0.77;;
545;SDS011;259;53.304;9.816;2022-09-02T01:30:50;0.80;;;0.80;;
545;SDS011;259;53.304;9.816;2022-09-02T01:33:18;1.20;;;1.10;;
545;SDS011;259;53.304;9.816;2022-09-02T01:35:44;0.70;;;0.60;;
545;SDS011;259;53.304;9.816;2022-09-02T01:38:10;0.80;;;0.80;;
545;SDS011;259;53.304;9.816;2022-09-02T01:40:36;0.60;;;0.60;;
545;SDS011;259;53.304;9.816;2022-09-02T01:43:06;0.80;;;0.80;;
545;SDS011;259;53.304;9.816;2022-09-02T01:45:35;0.70;;;0.60;;
545;SDS011;259;53.304;9.816;2022-09-02T01:48:02;0.93;;;0.93;;
545;SDS011;259;53.304;9.816;2022-09-02T01:50:28;0.90;;;0.90;;
545;SDS011;259;53.304;9.816;2022-09-02T01:52:55;0.77;;;0.77;;
545;SDS011;259;53.304;9.816;2022-09-02T01:55:22;0.80;;;0.80;;
545;SDS011;259;53.304;9.816;2022-09-02T01:57:47;0.70;;;0.70;;
545;SDS011;259;53.304;9.816;2022-09-02T02:00:13;0.70;;;0.70;;
545;SDS011;259;53.304;9.816;2022-09-02T02:02:40;1.33;;;0.83;;
545;SDS011;259;53.304;9.816;2022-09-02T02:05:06;0.87;;;0.87;;
545;SDS011;259;53.304;9.816;2022-09-02T02:07:32;0.83;;;0.83;;
545;SDS011;259;53.304;9.816;2022-09-02T02:09:58;0.90;;;0.90;;
545;SDS011;259;53.304;9.816;2022-09-02T02:12:23;0.70;;;0.70;;
545;SDS011;259;53.304;9.816;2022-09-02T02:14:49;0.70;;;0.70;;
545;SDS011;259;53.304;9.816;2022-09-02T02:17:15;0.63;;;0.63;;
545;SDS011;259;53.304;9.816;2022-09-02T02:19:41;1.10;;;1.00;;
545;SDS011;259;53.304;9.816;2022-09-02T02:22:08;0.87;;;0.87;;
545;SDS011;259;53.304;9.816;2022-09-02T02:24:33;1.63;;;0.93;;
545;SDS011;259;53.304;9.816;2022-09-02T02:26:59;0.93;;;0.93;;
545;SDS011;259;53.304;9.816;2022-09-02T02:29:25;1.03;;;0.87;;
545;SDS011;259;53.304;9.816;2022-09-02T02:31:51;0.90;;;0.90;;
545;SDS011;259;53.304;9.816;2022-09-02T02:34:16;1.00;;;0.90;;
545;SDS011;259;53.304;9.816;2022-09-02T02:36:42;0.80;;;0.80;;
545;SDS011;259;53.304;9.816;2022-09-02T02:39:08;0.70;;;0.70;;
545;SDS011;259;53.304;9.816;2022-09-02T02:41:36;0.80;;;0.80;;
545;SDS011;259;53.304;9.816;2022-09-02T02:44:03;0.80;;;0.80;;
545;SDS011;259;53.304;9.816;2022-09-02T02:46:29;1.07;;;0.97;;
545;SDS011;259;53.304;9.816;2022-09-02T02:48:57;1.00;;;1.00;;
545;SDS011;259;53.304;9.816;2022-09-02T02:51:23;0.93;;;0.90;;
545;SDS011;259;53.304;9.816;2022-09-02T02:53:50;1.43;;;0.77;;
545;SDS011;259;53.304;9.816;2022-09-02T02:56:15;0.90;;;0.90;;
545;SDS011;259;53.304;9.816;2022-09-02T02:58:41;1.20;;;1.10;;
545;SDS011;259;53.304;9.816;2022-09-02T03:01:07;1.03;;;0.80;;
545;SDS011;259;53.304;9.816;2022-09-02T03:03:32;0.93;;;0.93;;
545;SDS011;259;53.304;9.816;2022-09-02T03:05:58;1.67;;;1.00;;
545;SDS011;259;53.304;9.816;2022-09-02T03:08:24;1.10;;;1.00;;
545;SDS011;259;53.304;9.816;2022-09-02T03:10:51;1.00;;;1.00;;
545;SDS011;259;53.304;9.816;2022-09-02T03:13:18;1.40;;;1.13;;
545;SDS011;259;53.304;9.816;2022-09-02T03:15:45;0.70;;;0.70;;
545;SDS011;259;53.304;9.816;2022-09-02T03:18:12;1.20;;;1.10;;
545;SDS011;259;53.304;9.816;2022-09-02T03:20:39;2.20;;;1.53;;
545;SDS011;259;53.304;9.816;2022-09-02T03:23:05;0.90;;;0.90;;
545;SDS011;259;53.304;9.816;2022-09-02T03:25:32;0.93;;;0.93;;
545;SDS011;259;53.304;9.816;2022-09-02T03:27:58;1.17;;;1.07;;
545;SDS011;259;53.304;9.816;2022-09-02T03:30:26;1.53;;;0.97;;
545;SDS011;259;53.304;9.816;2022-09-02T03:32:54;0.97;;;0.87;;
545;SDS011;259;53.304;9.816;2022-09-02T03:35:21;1.40;;;1.30;;
545;SDS011;259;53.304;9.816;2022-09-02T03:37:47;1.30;;;1.20;;
545;SDS011;259;53.304;9.816;2022-09-02T03:40:16;1.17;;;1.07;;
545;SDS011;259;53.304;9.816;2022-09-02T03:42:45;0.97;;;0.80;;
545;SDS011;259;53.304;9.816;2022-09-02T03:45:11;1.33;;;1.23;;
545;SDS011;259;53.304;9.816;2022-09-02T03:47:39;1.03;;;1.03;;
545;SDS011;259;53.304;9.816;2022-09-02T03:50:10;0.70;;;0.70;;
545;SDS011;259;53.304;9.816;2022-09-02T03:52:36;1.40;;;0.90;;
545;SDS011;259;53.304;9.816;2022-09-02T03:55:02;0.77;;;0.77;;
545;SDS011;259;53.304;9.816;2022-09-02T03:57:29;0.90;;;0.90;;
545;SDS011;259;53.304;9.816;2022-09-02T03:59:55;0.80;;;0.80;;
545;SDS011;259;53.304;9.816;2022-09-02T04:02:21;0.97;;;0.97;;
545;SDS011;259;53.304;9.816;2022-09-02T04:04:47;1.30;;;1.20;;
545;SDS011;259;53.304;9.816;2022-09-02T04:07:13;2.00;;;1.20;;
545;SDS011;259;53.304;9.816;2022-09-02T04:09:39;1.40;;;1.30;;
545;SDS011;259;53.304;9.816;2022-09-02T04:12:05;1.07;;;1.00;;
545;SDS011;259;53.304;9.816;2022-09-02T04:14:31;1.93;;;1.73;;
545;SDS011;259;53.304;9.816;2022-09-02T04:16:57;0.90;;;0.90;;
545;SDS011;259;53.304;9.816;2022-09-02T04:19:22;1.27;;;0.97;;
545;SDS011;259;53.304;9.816;2022-09-02T04:21:48;0.90;;;0.90;;
545;SDS011;259;53.304;9.816;2022-09-02T04:24:13;0.87;;;0.83;;
545;SDS011;259;53.304;9.816;2022-09-02T04:26:39;0.90;;;0.90;;
545;SDS011;259;53.304;9.816;2022-09-02T04:29:05;0.77;;;0.77;;
545;SDS011;259;53.304;9.816;2022-09-02T04:31:32;1.00;;;0.90;;
545;SDS011;259;53.304;9.816;2022-09-02T04:33:57;1.43;;;1.00;;
545;SDS011;259;53.304;9.816;2022-09-02T04:36:24;1.20;;;0.80;;
545;SDS011;259;53.304;9.816;2022-09-02T04:38:50;1.10;;;1.00;;
545;SDS011;259;53.304;9.816;2022-09-02T04:41:18;1.10;;;0.80;;
545;SDS011;259;53.304;9.816;2022-09-02T04:43:47;1.20;;;1.10;;
545;SDS011;259;53.304;9.816;2022-09-02T04:46:14;0.90;;;0.90;;
545;SDS011;259;53.304;9.816;2022-09-02T04:48:40;0.90;;;0.90;;
545;SDS011;259;53.304;9.816;2022-09-02T04:51:07;0.90;;;0.90;;
545;SDS011;259;53.304;9.816;2022-09-02T04:53:35;1.13;;;1.03;;
545;SDS011;259;53.304;9.816;2022-09-02T04:56:04;1.50;;;0.90;;
545;SDS011;259;53.304;9.816;2022-09-02T04:58:32;0.97;;;0.90;;
545;SDS011;259;53.304;9.816;2022-09-02T05:00:57;1.13;;;1.13;;
545;SDS011;259;53.304;9.816;2022-09-02T05:03:23;1.23;;;1.13;;
545;SDS011;259;53.304;9.816;2022-09-02T05:05:57;0.80;;;0.80;;
545;SDS011;259;53.304;9.816;2022-09-02T05:08:24;0.90;;;0.83;;
545;SDS011;259;53.304;9.816;2022-09-02T05:10:49;0.93;;;0.93;;
545;SDS011;259;53.304;9.816;2022-09-02T05:13:16;1.00;;;0.97;;
545;SDS011;259;53.304;9.816;2022-09-02T05:15:41;0.97;;;0.97;;
545;SDS011;259;53.304;9.816;2022-09-02T05:18:08;1.53;;;1.10;;
545;SDS011;259;53.304;9.816;2022-09-02T05:20:36;1.00;;;1.00;;
545;SDS011;259;53.304;9.816;2022-09-02T05:23:03;0.97;;;0.90;;
545;SDS011;259;53.304;9.816;2022-09-02T05:25:29;1.00;;;1.00;;
545;SDS011;259;53.304;9.816;2022-09-02T05:27:55;0.80;;;0.80;;
545;SDS011;259;53.304;9.816;2022-09-02T05:30:20;1.00;;;1.00;;
545;SDS011;259;53.304;9.816;2022-09-02T05:32:46;1.07;;;0.97;;
545;SDS011;259;53.304;9.816;2022-09-02T05:35:13;1.00;;;1.00;;
545;SDS011;259;53.304;9.816;2022-09-02T05:37:39;0.80;;;0.80;;
545;SDS011;259;53.304;9.816;2022-09-02T05:40:05;1.03;;;1.03;;
545;SDS011;259;53.304;9.816;2022-09-02T05:42:32;1.63;;;0.90;;
545;SDS011;259;53.304;9.816;2022-09-02T05:44:57;0.93;;;0.93;;
545;SDS011;259;53.304;9.816;2022-09-02T05:47:23;1.10;;;1.00;;
545;SDS011;259;53.304;9.816;2022-09-02T05:49:49;1.10;;;0.97;;
545;SDS011;259;53.304;9.816;2022-09-02T05:52:15;1.17;;;1.07;;
545;SDS011;259;53.304;9.816;2022-09-02T05:54:42;1.53;;;1.00;;
545;SDS011;259;53.304;9.816;2022-09-02T05:57:13;1.00;;;1.00;;
545;SDS011;259;53.304;9.816;2022-09-02T05:59:40;0.93;;;0.90;;
545;SDS011;259;53.304;9.816;2022-09-02T06:02:08;1.30;;;1.00;;
545;SDS011;259;53.304;9.816;2022-09-02T06:04:42;0.90;;;0.90;;
545;SDS011;259;53.304;9.816;2022-09-02T06:07:09;1.67;;;0.80;;
545;SDS011;259;53.304;9.816;2022-09-02T06:09:35;2.13;;;1.02;;
545;SDS011;259;53.304;9.816;2022-09-02T06:12:01;4.40;;;1.07;;
545;SDS011;259;53.304;9.816;2022-09-02T06:14:28;2.50;;;1.30;;
545;SDS011;259;53.304;9.816;2022-09-02T06:16:55;5.10;;;1.80;;
545;SDS011;259;53.304;9.816;2022-09-02T06:19:23;2.97;;;1.23;;
545;SDS011;259;53.304;9.816;2022-09-02T06:21:50;2.40;;;1.30;;
545;SDS011;259;53.304;9.816;2022-09-02T06:24:16;3.53;;;1.40;;
545;SDS011;259;53.304;9.816;2022-09-02T06:26:42;7.80;;;1.20;;
545;SDS011;259;53.304;9.816;2022-09-02T06:29:08;1.87;;;1.03;;
545;SDS011;259;53.304;9.816;2022-09-02T06:31:34;4.37;;;1.60;;
545;SDS011;259;53.304;9.816;2022-09-02T06:34:01;1.97;;;1.10;;
545;SDS011;259;53.304;9.816;2022-09-02T06:36:27;8.07;;;1.63;;
545;SDS011;259;53.304;9.816;2022-09-02T06:38:55;8.10;;;1.70;;
545;SDS011;259;53.304;9.816;2022-09-02T06:41:23;3.87;;;1.30;;
545;SDS011;259;53.304;9.816;2022-09-02T06:43:53;6.30;;;1.50;;
545;SDS011;259;53.304;9.816;2022-09-02T06:46:23;8.43;;;1.60;;
545;SDS011;259;53.304;9.816;2022-09-02T06:48:50;10.00;;;2.23;;
545;SDS011;259;53.304;9.816;2022-09-02T06:51:17;7.47;;;1.83;;
545;SDS011;259;53.304;9.816;2022-09-02T06:53:49;15.63;;;6.07;;
545;SDS011;259;53.304;9.816;2022-09-02T06:56:15;10.03;;;2.07;;
545;SDS011;259;53.304;9.816;2022-09-02T06:58:41;11.33;;;2.20;;
545;SDS011;259;53.304;9.816;2022-09-02T07:01:07;10.70;;;2.50;;
545;SDS011;259;53.304;9.816;2022-09-02T07:03:33;7.70;;;2.20;;
545;SDS011;259;53.304;9.816;2022-09-02T07:06:17;9.47;;;2.77;;
545;SDS011;259;53.304;9.816;2022-09-02T07:08:43;16.33;;;2.50;;
545;SDS011;259;53.304;9.816;2022-09-02T07:11:22;2.43;;;1.40;;
545;SDS011;259;53.304;9.816;2022-09-02T07:13:49;7.83;;;1.50;;
545;SDS011;259;53.304;9.816;2022-09-02T07:16:15;3.90;;;1.67;;
545;SDS011;259;53.304;9.816;2022-09-02T07:18:41;3.00;;;1.40;;
545;SDS011;259;53.304;9.816;2022-09-02T07:21:08;2.80;;;1.30;;
545;SDS011;259;53.304;9.816;2022-09-02T07:23:35;3.73;;;1.20;;
545;SDS011;259;53.304;9.816;2022-09-02T07:26:01;1.57;;;1.27;;
545;SDS011;259;53.304;9.816;2022-09-02T07:28:26;5.90;;;1.60;;
545;SDS011;259;53.304;9.816;2022-09-02T07:30:52;3.50;;;1.83;;
545;SDS011;259;53.304;9.816;2022-09-02T07:33:19;9.18;;;1.95;;
545;SDS011;259;53.304;9.816;2022-09-02T07:35:45;4.10;;;1.80;;
545;SDS011;259;53.304;9.816;2022-09-02T07:38:11;10.30;;;2.37;;
545;SDS011;259;53.304;9.816;2022-09-02T07:40:39;8.63;;;2.00;;
545;SDS011;259;53.304;9.816;2022-09-02T07:43:06;7.23;;;1.60;;
545;SDS011;259;53.304;9.816;2022-09-02T07:45:33;3.80;;;1.63;;
545;SDS011;259;53.304;9.816;2022-09-02T07:48:02;4.73;;;1.70;;
545;SDS011;259;53.304;9.816;2022-09-02T07:50:31;3.53;;;1.27;;
545;SDS011;259;53.304;9.816;2022-09-02T07:52:57;3.80;;;1.67;;
545;SDS011;259;53.304;9.816;2022-09-02T07:55:26;2.30;;;1.50;;
545;SDS011;259;53.304;9.816;2022-09-02T07:57:57;6.97;;;2.00;;
545;SDS011;259;53.304;9.816;2022-09-02T08:00:23;3.23;;;1.63;;
545;SDS011;259;53.304;9.816;2022-09-02T08:02:51;4.80;;;2.03;;
545;SDS011;259;53.304;9.816;2022-09-02T08:05:17;1.70;;;1.60;;
545;SDS011;259;53.304;9.816;2022-09-02T08:07:43;2.63;;;2.20;;
545;SDS011;259;53.304;9.816;2022-09-02T08:10:09;3.43;;;1.73;;
545;SDS011;259;53.304;9.816;2022-09-02T08:12:37;2.60;;;1.80;;
545;SDS011;259;53.304;9.816;2022-09-02T08:15:04;3.23;;;1.90;;
545;SDS011;259;53.304;9.816;2022-09-02T08:17:30;1.60;;;1.50;;
545;SDS011;259;53.304;9.816;2022-09-02T08:19:56;1.77;;;1.67;;
545;SDS011;259;53.304;9.816;2022-09-02T08:22:22;1.47;;;1.40;;
545;SDS011;259;53.304;9.816;2022-09-02T08:24:48;1.43;;;1.33;;
545;SDS011;259;53.304;9.816;2022-09-02T08:27:13;1.70;;;1.60;;
545;SDS011;259;53.304;9.816;2022-09-02T08:29:39;2.90;;;1.90;;
545;SDS011;259;53.304;9.816;2022-09-02T08:32:05;4.40;;;1.57;;
545;SDS011;259;53.304;9.816;2022-09-02T08:34:30;1.83;;;1.50;;
545;SDS011;259;53.304;9.816;2022-09-02T08:36:56;3.87;;;1.70;;
545;SDS011;259;53.304;9.816;2022-09-02T08:39:22;2.50;;;2.30;;
545;SDS011;259;53.304;9.816;2022-09-02T08:44:14;1.63;;;1.43;;
545;SDS011;259;53.304;9.816;2022-09-02T08:46:51;2.47;;;1.60;;
545;SDS011;259;53.304;9.816;2022-09-02T08:49:24;3.37;;;1.13;;
545;SDS011;259;53.304;9.816;2022-09-02T08:51:56;1.63;;;1.47;;
545;SDS011;259;53.304;9.816;2022-09-02T08:54:29;3.73;;;1.40;;
545;SDS011;259;53.304;9.816;2022-09-02T08:57:04;1.50;;;1.40;;
545;SDS011;259;53.304;9.816;2022-09-02T08:59:29;2.80;;;1.30;;
545;SDS011;259;53.304;9.816;2022-09-02T09:02:09;1.43;;;1.30;;
545;SDS011;259;53.304;9.816;2022-09-02T09:13:30;1.97;;;1.60;;
545;SDS011;259;53.304;9.816;2022-09-02T09:21:40;1.50;;;1.40;;
545;SDS011;259;53.304;9.816;2022-09-02T09:24:14;1.40;;;1.27;;
545;SDS011;259;53.304;9.816;2022-09-02T09:26:51;1.57;;;1.37;;
545;SDS011;259;53.304;9.816;2022-09-02T09:29:18;1.50;;;1.30;;
545;SDS011;259;53.304;9.816;2022-09-02T09:31:43;3.60;;;2.00;;
545;SDS011;259;53.304;9.816;2022-09-02T09:47:20;1.50;;;1.40;;
545;SDS011;259;53.304;9.816;2022-09-02T09:49:48;2.37;;;1.60;;
545;SDS011;259;53.304;9.816;2022-09-02T09:52:25;2.40;;;1.47;;
545;SDS011;259;53.304;9.816;2022-09-02T09:57:37;1.63;;;1.50;;
545;SDS011;259;53.304;9.816;2022-09-02T10:00:38;2.43;;;1.23;;
545;SDS011;259;53.304;9.816;2022-09-02T10:02:58;1.60;;;1.50;;
545;SDS011;259;53.304;9.816;2022-09-02T10:05:36;1.43;;;1.33;;
545;SDS011;259;53.304;9.816;2022-09-02T10:08:05;1.77;;;1.07;;
545;SDS011;259;53.304;9.816;2022-09-02T10:13:34;2.07;;;1.50;;
545;SDS011;259;53.304;9.816;2022-09-02T10:18:41;2.30;;;1.60;;
545;SDS011;259;53.304;9.816;2022-09-02T10:21:16;1.53;;;1.43;;
545;SDS011;259;53.304;9.816;2022-09-02T10:26:40;1.87;;;1.77;;
545;SDS011;259;53.304;9.816;2022-09-02T10:35:32;1.53;;;1.40;;
545;SDS011;259;53.304;9.816;2022-09-02T10:40:51;1.67;;;1.57;;
545;SDS011;259;53.304;9.816;2022-09-02T10:46:29;5.70;;;1.40;;
545;SDS011;259;53.304;9.816;2022-09-02T10:57:19;1.53;;;1.10;;
545;SDS011;259;53.304;9.816;2022-09-02T10:59:55;1.43;;;1.33;;
545;SDS011;259;53.304;9.816;2022-09-02T11:02:36;1.40;;;1.23;;
545;SDS011;259;53.304;9.816;2022-09-02T11:07:54;1.37;;;1.27;;
545;SDS011;259;53.304;9.816;2022-09-02T11:11:07;1.30;;;1.20;;
545;SDS011;259;53.304;9.816;2022-09-02T11:14:12;1.47;;;1.37;;
545;SDS011;259;53.304;9.816;2022-09-02T11:16:57;1.20;;;1.10;;
545;SDS011;259;53.304;9.816;2022-09-02T11:19:34;4.60;;;1.40;;
545;SDS011;259;53.304;9.816;2022-09-02T11:30:14;2.33;;;1.80;;
545;SDS011;259;53.304;9.816;2022-09-02T11:32:53;2.60;;;1.83;;
545;SDS011;259;53.304;9.816;2022-09-02T11:35:27;3.73;;;1.40;;
545;SDS011;259;53.304;9.816;2022-09-02T11:38:01;1.40;;;1.30;;
545;SDS011;259;53.304;9.816;2022-09-02T11:40:31;1.40;;;1.30;;
545;SDS011;259;53.304;9.816;2022-09-02T11:46:30;1.30;;;1.20;;
545;SDS011;259;53.304;9.816;2022-09-02T11:52:16;1.30;;;1.30;;
545;SDS011;259;53.304;9.816;2022-09-02T11:54:22;1.53;;;1.30;;
545;SDS011;259;53.304;9.816;2022-09-02T11:56:55;1.00;;;0.90;;
545;SDS011;259;53.304;9.816;2022-09-02T12:00:00;1.20;;;1.10;;
545;SDS011;259;53.304;9.816;2022-09-02T12:02:29;1.63;;;1.33;;
545;SDS011;259;53.304;9.816;2022-09-02T12:07:54;1.30;;;1.20;;
545;SDS011;259;53.304;9.816;2022-09-02T12:13:11;1.67;;;1.40;;
545;SDS011;259;53.304;9.816;2022-09-02T12:18:36;1.17;;;1.17;;
545;SDS011;259;53.304;9.816;2022-09-02T12:21:05;3.50;;;1.30;;
545;SDS011;259;53.304;9.816;2022-09-02T12:26:22;1.57;;;1.47;;
545;SDS011;259;53.304;9.816;2022-09-02T12:28:50;1.40;;;1.30;;
545;SDS011;259;53.304;9.816;2022-09-02T12:31:36;1.40;;;1.30;;
545;SDS011;259;53.304;9.816;2022-09-02T12:34:48;1.40;;;1.30;;
545;SDS011;259;53.304;9.816;2022-09-02T12:36:50;1.20;;;1.20;;
545;SDS011;259;53.304;9.816;2022-09-02T12:47:52;1.40;;;1.30;;
545;SDS011;259;53.304;9.816;2022-09-02T12:50:57;2.00;;;1.10;;
545;SDS011;259;53.304;9.816;2022-09-02T12:58:38;1.70;;;1.60;;
545;SDS011;259;53.304;9.816;2022-09-02T13:01:42;1.50;;;1.27;;
545;SDS011;259;53.304;9.816;2022-09-02T13:04:33;1.17;;;1.10;;
545;SDS011;259;53.304;9.816;2022-09-02T13:12:51;1.20;;;1.10;;
545;SDS011;259;53.304;9.816;2022-09-02T13:15:43;1.33;;;1.23;;
545;SDS011;259;53.304;9.816;2022-09-02T13:23:57;1.63;;;1.53;;
545;SDS011;259;53.304;9.816;2022-09-02T13:32:02;1.80;;;1.40;;
545;SDS011;259;53.304;9.816;2022-09-02T13:34:41;2.30;;;1.27;;
545;SDS011;259;53.304;9.816;2022-09-02T13:40:04;1.27;;;1.17;;
545;SDS011;259;53.304;9.816;2022-09-02T13:42:45;2.80;;;1.30;;
545;SDS011;259;53.304;9.816;2022-09-02T13:45:16;2.20;;;1.23;;
545;SDS011;259;53.304;9.816;2022-09-02T13:47:48;2.07;;;1.40;;
545;SDS011;259;53.304;9.816;2022-09-02T13:50:17;1.77;;;1.33;;
545;SDS011;259;53.304;9.816;2022-09-02T13:52:46;5.00;;;1.83;;
545;SDS011;259;53.304;9.816;2022-09-02T13:55:15;3.00;;;1.53;;
545;SDS011;259;53.304;9.816;2022-09-02T13:57:43;2.20;;;1.60;;
545;SDS011;259;53.304;9.816;2022-09-02T14:00:14;4.13;;;1.60;;
545;SDS011;259;53.304;9.816;2022-09-02T14:02:56;3.47;;;1.33;;
545;SDS011;259;53.304;9.816;2022-09-02T14:05:24;2.13;;;1.43;;
545;SDS011;259;53.304;9.816;2022-09-02T14:07:52;1.50;;;1.40;;
545;SDS011;259;53.304;9.816;2022-09-02T14:10:22;1.50;;;1.40;;
545;SDS011;259;53.304;9.816;2022-09-02T14:12:51;1.77;;;1.20;;
545;SDS011;259;53.304;9.816;2022-09-02T14:15:22;1.80;;;1.47;;
545;SDS011;259;53.304;9.816;2022-09-02T14:18:09;1.50;;;1.40;;
545;SDS011;259;53.304;9.816;2022-09-02T14:20:52;4.13;;;1.70;;
545;SDS011;259;53.304;9.816;2022-09-02T14:23:21;1.60;;;1.40;;
545;SDS011;259;53.304;9.816;2022-09-02T14:25:52;1.33;;;1.30;;
545;SDS011;259;53.304;9.816;2022-09-02T14:28:24;1.30;;;1.10;;
545;SDS011;259;53.304;9.816;2022-09-02T14:31:05;1.30;;;1.20;;
545;SDS011;259;53.304;9.816;2022-09-02T14:36:05;2.47;;;1.80;;
545;SDS011;259;53.304;9.816;2022-09-02T14:38:56;1.70;;;1.60;;
545;SDS011;259;53.304;9.816;2022-09-02T14:41:33;1.30;;;1.20;;
545;SDS011;259;53.304;9.816;2022-09-02T14:46:56;1.40;;;1.30;;
545;SDS011;259;53.304;9.816;2022-09-02T14:49:26;1.23;;;1.13;;
545;SDS011;259;53.304;9.816;2022-09-02T14:51:58;2.60;;;1.60;;
545;SDS011;259;53.304;9.816;2022-09-02T14:54:32;1.57;;;1.47;;
545;SDS011;259;53.304;9.816;2022-09-02T14:57:01;1.57;;;1.43;;
545;SDS011;259;53.304;9.816;2022-09-02T14:59:27;1.67;;;1.57;;
545;SDS011;259;53.304;9.816;2022-09-02T15:01:52;1.40;;;1.30;;
545;SDS011;259;53.304;9.816;2022-09-02T15:04:19;1.77;;;1.30;;
545;SDS011;259;53.304;9.816;2022-09-02T15:06:45;1.17;;;1.07;;
545;SDS011;259;53.304;9.816;2022-09-02T15:09:12;3.40;;;0.97;;
545;SDS011;259;53.304;9.816;2022-09-02T15:11:40;2.70;;;1.80;;
545;SDS011;259;53.304;9.816;2022-09-02T15:14:14;1.47;;;1.33;;
545;SDS011;259;53.304;9.816;2022-09-02T15:16:39;1.83;;;1.30;;
545;SDS011;259;53.304;9.816;2022-09-02T15:19:05;1.20;;;1.03;;
545;SDS011;259;53.304;9.816;2022-09-02T15:21:31;1.40;;;1.30;;
545;SDS011;259;53.304;9.816;2022-09-02T15:23:56;1.40;;;1.30;;
545;SDS011;259;53.304;9.816;2022-09-02T15:26:22;1.03;;;1.00;;
545;SDS011;259;53.304;9.816;2022-09-02T15:28:48;2.40;;;1.37;;
545;SDS011;259;53.304;9.816;2022-09-02T15:31:13;2.93;;;1.47;;
545;SDS011;259;53.304;9.816;2022-09-02T15:33:40;1.60;;;1.50;;
545;SDS011;259;53.304;9.816;2022-09-02T15:36:06;1.83;;;1.73;;
545;SDS011;259;53.304;9.816;2022-09-02T15:38:34;6.70;;;1.30;;
545;SDS011;259;53.304;9.816;2022-09-02T15:41:17;1.53;;;1.43;;
545;SDS011;259;53.304;9.816;2022-09-02T15:43:48;1.60;;;1.50;;
545;SDS011;259;53.304;9.816;2022-09-02T15:46:15;1.80;;;1.40;;
545;SDS011;259;53.304;9.816;2022-09-02T15:48:43;2.60;;;1.43;;
545;SDS011;259;53.304;9.816;2022-09-02T15:51:12;1.77;;;1.30;;
545;SDS011;259;53.304;9.816;2022-09-02T15:53:39;2.75;;;1.42;;
545;SDS011;259;53.304;9.816;2022-09-02T15:56:13;2.33;;;1.73;;
545;SDS011;259;53.304;9.816;2022-09-02T15:58:40;2.27;;;1.77;;
545;SDS011;259;53.304;9.816;2022-09-02T16:01:05;2.77;;;1.37;;
545;SDS011;259;53.304;9.816;2022-09-02T16:03:31;3.40;;;1.50;;
545;SDS011;259;53.304;9.816;2022-09-02T16:06:00;1.63;;;1.50;;
545;SDS011;259;53.304;9.816;2022-09-02T16:08:27;2.90;;;1.40;;
545;SDS011;259;53.304;9.816;2022-09-02T16:10:52;1.50;;;1.40;;
545;SDS011;259;53.304;9.816;2022-09-02T16:13:18;2.00;;;1.60;;
545;SDS011;259;53.304;9.816;2022-09-02T16:15:45;1.87;;;1.53;;
545;SDS011;259;53.304;9.816;2022-09-02T16:18:10;1.83;;;1.47;;
545;SDS011;259;53.304;9.816;2022-09-02T16:20:36;2.90;;;1.70;;
545;SDS011;259;53.304;9.816;2022-09-02T16:23:01;1.40;;;1.30;;
545;SDS011;259;53.304;9.816;2022-09-02T16:25:27;3.47;;;1.70;;
545;SDS011;259;53.304;9.816;2022-09-02T16:27:53;1.73;;;1.40;;
545;SDS011;259;53.304;9.816;2022-09-02T16:30:19;3.83;;;1.30;;
545;SDS011;259;53.304;9.816;2022-09-02T16:32:45;2.60;;;1.30;;
545;SDS011;259;53.304;9.816;2022-09-02T16:35:11;3.47;;;1.60;;
545;SDS011;259;53.304;9.816;2022-09-02T16:37:37;2.20;;;1.50;;
545;SDS011;259;53.304;9.816;2022-09-02T16:40:03;1.80;;;1.70;;
545;SDS011;259;53.304;9.816;2022-09-02T16:42:29;2.07;;;1.43;;
545;SDS011;259;53.304;9.816;2022-09-02T16:44:55;3.93;;;1.57;;
545;SDS011;259;53.304;9.816;2022-09-02T16:47:20;2.10;;;1.40;;
545;SDS011;259;53.304;9.816;2022-09-02T16:49:46;2.13;;;1.40;;
545;SDS011;259;53.304;9.816;2022-09-02T16:52:12;1.50;;;1.40;;
545;SDS011;259;53.304;9.816;2022-09-02T16:54:37;1.57;;;1.40;;
545;SDS011;259;53.304;9.816;2022-09-02T16:57:03;1.10;;;1.10;;
545;SDS011;259;53.304;9.816;2022-09-02T16:59:30;1.47;;;1.37;;
545;SDS011;259;53.304;9.816;2022-09-02T17:01:56;1.90;;;1.80;;
545;SDS011;259;53.304;9.816;2022-09-02T17:04:22;1.90;;;1.70;;
545;SDS011;259;53.304;9.816;2022-09-02T17:06:48;1.50;;;1.40;;
545;SDS011;259;53.304;9.816;2022-09-02T17:09:13;1.63;;;1.53;;
545;SDS011;259;53.304;9.816;2022-09-02T17:11:40;5.50;;;1.70;;
545;SDS011;259;53.304;9.816;2022-09-02T17:14:09;1.40;;;1.30;;
545;SDS011;259;53.304;9.816;2022-09-02T17:16:37;2.07;;;1.50;;
545;SDS011;259;53.304;9.816;2022-09-02T17:19:05;1.93;;;1.60;;
545;SDS011;259;53.304;9.816;2022-09-02T17:21:41;1.13;;;1.13;;
545;SDS011;259;53.304;9.816;2022-09-02T17:24:08;1.87;;;1.77;;
545;SDS011;259;53.304;9.816;2022-09-02T17:26:37;2.40;;;1.57;;
545;SDS011;259;53.304;9.816;2022-09-02T17:29:08;1.70;;;1.60;;
545;SDS011;259;53.304;9.816;2022-09-02T17:31:35;1.63;;;1.53;;
545;SDS011;259;53.304;9.816;2022-09-02T17:34:02;1.70;;;1.60;;
545;SDS011;259;53.304;9.816;2022-09-02T17:36:30;1.40;;;1.30;;
545;SDS011;259;53.304;9.816;2022-09-02T17:39:00;1.60;;;1.50;;
545;SDS011;259;53.304;9.816;2022-09-02T17:41:27;3.83;;;1.30;;
545;SDS011;259;53.304;9.816;2022-09-02T17:44:12;1.73;;;1.33;;
545;SDS011;259;53.304;9.816;2022-09-02T17:46:39;2.10;;;1.90;;
545;SDS011;259;53.304;9.816;2022-09-02T17:49:05;1.73;;;1.63;;
545;SDS011;259;53.304;9.816;2022-09-02T17:51:31;2.10;;;1.83;;
545;SDS011;259;53.304;9.816;2022-09-02T17:53:57;2.40;;;1.73;;
545;SDS011;259;53.304;9.816;2022-09-02T18:10:02;3.90;;;1.60;;
545;SDS011;259;53.304;9.816;2022-09-02T18:12:28;1.57;;;1.47;;
545;SDS011;259;53.304;9.816;2022-09-02T18:14:57;3.80;;;1.73;;
545;SDS011;259;53.304;9.816;2022-09-02T18:17:26;1.57;;;1.47;;
545;SDS011;259;53.304;9.816;2022-09-02T18:20:25;2.40;;;2.20;;
545;SDS011;259;53.304;9.816;2022-09-02T18:25:49;1.60;;;1.50;;